Time;durP1;ratioP1;P1;durP2;ratioP2;P2;SDS_P1;SDS_P2;PMS_P1;PMS_P2;Temp;Humidity;BMP_temperature;BMP_pressure;BME280_temperature;BME280_humidity;BME280_pressure;Samples;Min_cycle;Max_cycle;Signal;HPM_P1;HPM_P2
2022/06/17 00:04:52;;;;;;;13.50;12.80;;;;;;;19.84;100.00;102178.28;2018642;71;30942;-69
2022/06/17 00:10:39;;;;;;;14.80;14.00;;;;;;;19.58;100.00;102170.11;2014942;71;31431;-69
2022/06/17 00:16:28;;;;;;;15.23;14.43;;;;;;;19.35;100.00;102146.58;1998520;71;30966;-68
2022/06/17 00:22:13;;;;;;;17.53;16.50;;;;;;;19.52;100.00;102149.64;2009121;71;31052;-67
2022/06/17 00:28:00;;;;;;;20.87;19.87;;;;;;;19.48;100.00;102145.20;1998432;71;30981;-68
2022/06/17 00:33:46;;;;;;;19.53;18.53;;;;;;;19.13;100.00;102142.23;2005886;71;31451;-69
2022/06/17 00:39:34;;;;;;;19.13;17.93;;;;;;;19.99;100.00;102139.84;2003897;71;31477;-69
2022/06/17 00:45:30;;;;;;;22.37;21.30;;;;;;;19.99;100.00;102153.95;2004115;71;30841;-69
2022/06/17 00:51:20;;;;;;;21.80;20.80;;;;;;;19.67;100.00;102151.31;2006223;71;31328;-69
2022/06/17 00:57:21;;;;;;;32.77;30.93;;;;;;;19.27;100.00;102134.63;2007984;71;30882;-68
2022/06/17 01:03:38;;;;;;;39.50;37.30;;;;;;;19.09;100.00;102144.84;2008078;71;30865;-68
2022/06/17 01:15:33;;;;;;;34.33;32.43;;;;;;;19.48;100.00;102125.48;1998955;71;33300;-69
2022/06/17 01:21:23;;;;;;;40.73;38.50;;;;;;;19.26;100.00;102117.46;2014836;71;32966;-68
2022/06/17 01:27:10;;;;;;;40.23;38.10;;;;;;;19.09;100.00;102115.27;2014851;71;31076;-68
2022/06/17 01:32:57;;;;;;;43.63;41.23;;;;;;;18.85;100.00;102110.41;2018490;70;31012;-69
2022/06/17 01:38:46;;;;;;;52.40;49.40;;;;;;;18.64;100.00;102103.75;2003854;71;31036;-68
2022/06/17 01:44:35;;;;;;;59.43;55.87;;;;;;;18.46;100.00;102113.04;2016347;71;30913;-68
2022/06/17 01:50:26;;;;;;;63.23;59.63;;;;;;;18.31;100.00;102114.72;2007600;71;30864;-68
2022/06/17 01:56:15;;;;;;;65.97;62.07;;;;;;;18.03;100.00;102114.31;2005568;71;30923;-68
2022/06/17 02:02:04;;;;;;;66.90;63.00;;;;;;;18.08;100.00;102111.42;2016812;71;31396;-68
2022/06/17 02:07:57;;;;;;;69.90;65.60;;;;;;;17.89;100.00;102101.58;2002077;71;30938;-69
2022/06/17 02:13:41;;;;;;;68.70;64.30;;;;;;;17.91;100.00;102097.07;2011136;71;31014;-69
2022/06/17 02:19:29;;;;;;;71.13;66.83;;;;;;;17.80;100.00;102094.16;2009484;71;33396;-68
2022/06/17 02:25:18;;;;;;;74.80;70.37;;;;;;;17.79;100.00;102091.91;1991429;71;30897;-68
2022/06/17 02:27:52;;;;;;;73.60;69.10;;;;;;;17.73;100.00;102091.14;1958154;72;24168;-69
2022/06/17 02:33:38;;;;;;;77.83;72.93;;;;;;;17.51;100.00;102087.21;2006152;71;31081;-68
2022/06/17 02:39:27;;;;;;;74.10;69.23;;;;;;;17.47;100.00;102095.97;2000006;71;31421;-68
2022/06/17 02:45:16;;;;;;;76.07;71.27;;;;;;;17.39;100.00;102091.03;2014808;71;31384;-68
2022/06/17 02:51:02;;;;;;;74.23;69.30;;;;;;;17.56;100.00;102078.15;2011585;71;31438;-68
2022/06/17 02:56:51;;;;;;;80.37;75.33;;;;;;;17.38;100.00;102080.92;2014958;71;30891;-69
2022/06/17 03:02:41;;;;;;;62.43;58.50;;;;;;;17.48;100.00;102073.77;2003930;71;30884;-69
2022/06/17 03:08:32;;;;;;;66.07;61.97;;;;;;;17.33;100.00;102072.59;2002472;71;30875;-68
2022/06/17 03:14:19;;;;;;;64.63;60.57;;;;;;;17.17;100.00;102062.94;2018252;71;33048;-68
2022/06/17 03:20:08;;;;;;;66.10;61.93;;;;;;;16.87;100.00;102086.32;2016525;71;32964;-68
2022/06/17 03:26:00;;;;;;;64.30;60.37;;;;;;;16.64;100.00;102046.74;1995224;71;33435;-68
2022/06/17 03:31:49;;;;;;;63.27;59.37;;;;;;;16.64;100.00;102043.94;2010899;71;30949;-69
2022/06/17 03:37:39;;;;;;;62.57;58.67;;;;;;;16.66;100.00;102056.25;2003952;71;33406;-68
2022/06/17 03:43:31;;;;;;;63.73;59.63;;;;;;;16.73;100.00;102059.52;2002005;71;33087;-68
2022/06/17 03:49:20;;;;;;;65.57;61.40;;;;;;;16.81;100.00;102064.52;2000724;71;33358;-68
2022/06/17 03:51:54;;;;;;;62.77;58.67;;;;;;;16.83;100.00;102074.86;1975504;72;26234;-69
2022/06/17 03:57:38;;;;;;;65.30;61.20;;;;;;;16.87;100.00;102067.52;1995286;71;33294;-67
2022/06/17 04:03:31;;;;;;;64.50;60.40;;;;;;;16.62;100.00;102069.19;1998712;71;31415;-67
2022/06/17 04:09:19;;;;;;;62.90;58.90;;;;;;;16.24;100.00;102070.37;1998443;71;30886;-67
2022/06/17 04:15:11;;;;;;;62.60;58.50;;;;;;;15.75;100.00;102064.01;2003770;71;32948;-67
2022/06/17 04:20:57;;;;;;;62.53;58.23;;;;;;;15.52;100.00;102080.13;2006098;71;33281;-67
2022/06/17 04:26:46;;;;;;;61.60;57.30;;;;;;;15.71;100.00;102078.33;2000664;71;33270;-67
2022/06/17 04:32:35;;;;;;;64.47;60.27;;;;;;;15.75;100.00;102070.45;2000136;71;32926;-67
2022/06/17 04:38:20;;;;;;;61.93;57.73;;;;;;;15.82;100.00;102072.95;2000667;71;32905;-67
2022/06/17 04:44:09;;;;;;;63.23;59.13;;;;;;;15.79;100.00;102071.55;2013077;71;32809;-67
2022/06/17 04:49:58;;;;;;;62.03;57.83;;;;;;;15.87;100.00;102061.11;2002474;71;33264;-66
2022/06/17 04:55:45;;;;;;;63.10;58.80;;;;;;;16.01;100.00;102059.90;2004261;71;33233;-65
2022/06/17 05:01:32;;;;;;;65.20;61.17;;;;;;;16.59;100.00;102051.56;2018312;71;30914;-67
2022/06/17 05:07:18;;;;;;;63.33;59.43;;;;;;;16.69;100.00;102038.80;2007382;71;32870;-67
2022/06/17 05:13:07;;;;;;;63.07;59.20;;;;;;;16.72;100.00;102034.02;1999954;71;30876;-67
2022/06/17 05:18:53;;;;;;;54.17;50.87;;;;;;;17.14;100.00;102050.08;2011485;71;32878;-66
2022/06/17 05:24:41;;;;;;;57.00;53.50;;;;;;;17.38;100.00;102055.64;1998876;71;33301;-67
2022/06/17 05:30:28;;;;;;;57.47;53.97;;;;;;;17.36;100.00;102057.37;2011126;71;30979;-67
2022/06/17 05:36:13;;;;;;;52.40;49.03;;;;;;;17.69;100.00;102083.62;1995102;71;30901;-67
2022/06/17 05:42:00;;;;;;;51.17;48.27;;;;;;;17.86;100.00;102093.77;2016536;71;30936;-67
2022/06/17 05:47:45;;;;;;;45.40;42.87;;;;;;;18.15;100.00;102095.83;2006129;71;30912;-66
2022/06/17 05:53:31;;;;;;;38.67;36.37;;;;;;;18.34;100.00;102097.78;2011074;71;33520;-67
2022/06/17 05:59:17;;;;;;;38.57;36.27;;;;;;;18.48;100.00;102101.48;2002216;71;31040;-67
2022/06/17 06:05:03;;;;;;;38.30;36.10;;;;;;;18.68;100.00;102118.60;2009480;71;31028;-67
2022/06/17 06:10:48;;;;;;;34.27;32.27;;;;;;;18.91;100.00;102117.02;2011815;70;30887;-66
2022/06/17 06:16:35;;;;;;;34.60;32.40;;;;;;;19.18;100.00;102104.95;2014930;71;31395;-65
2022/06/17 06:22:21;;;;;;;30.20;28.50;;;;;;;19.68;100.00;102093.78;2014776;71;31369;-67
2022/06/17 06:28:13;;;;;;;30.87;29.17;;;;;;;19.53;100.00;102103.39;1994948;71;30870;-67
2022/06/17 06:30:46;;;;;;;30.57;28.87;;;;;;;19.90;100.00;102103.09;1965844;72;24166;-67
2022/06/17 06:39:38;;;;;;;30.00;28.40;;;;;;;19.65;100.00;102085.93;2053051;69;30559;-66
2022/06/17 06:42:09;;;;;;;29.53;28.03;;;;;;;19.62;100.00;102086.00;1942102;73;24619;-67
2022/06/17 06:44:41;;;;;;;28.67;26.87;;;;;;;19.61;100.00;102080.67;1937590;73;24654;-67
2022/06/17 06:47:13;;;;;;;29.23;27.73;;;;;;;19.74;100.00;102077.83;1973848;72;24646;-70
2022/06/17 06:49:44;;;;;;;29.57;28.07;;;;;;;19.73;100.00;102076.72;1945505;73;24258;-67
2022/06/17 06:52:14;;;;;;;27.17;25.77;;;;;;;19.74;100.00;102072.19;1940146;73;24651;-67
2022/06/17 06:54:44;;;;;;;26.50;25.00;;;;;;;19.84;100.00;102066.32;1937470;74;24136;-67
2022/06/17 06:57:16;;;;;;;26.93;25.43;;;;;;;19.86;100.00;102059.77;1933954;73;24313;-67
2022/06/17 06:59:46;;;;;;;26.20;24.70;;;;;;;20.04;100.00;102059.91;1937427;74;24113;-67
2022/06/17 07:02:23;;;;;;;26.53;25.00;;;;;;;20.23;100.00;102054.92;1937359;73;24155;-67
2022/06/17 07:04:53;;;;;;;25.67;24.07;;;;;;;20.02;100.00;102051.79;2022682;71;24155;-66
2022/06/17 07:07:24;;;;;;;26.00;24.50;;;;;;;19.87;100.00;102057.78;1998843;70;24179;-67
2022/06/17 07:09:54;;;;;;;26.33;24.70;;;;;;;19.89;100.00;102055.50;1973584;72;24137;-67
2022/06/17 07:12:24;;;;;;;29.10;27.37;;;;;;;19.82;100.00;102059.31;1977607;72;24197;-68
2022/06/17 07:14:55;;;;;;;26.90;25.33;;;;;;;19.87;100.00;102050.16;1968391;72;24664;-68
2022/06/17 07:17:25;;;;;;;25.63;24.03;;;;;;;19.90;100.00;102055.16;1973623;72;26724;-68
2022/06/17 07:19:55;;;;;;;25.77;24.23;;;;;;;19.93;100.00;102046.08;1973250;72;24154;-69
2022/06/17 07:22:25;;;;;;;24.40;23.00;;;;;;;20.03;100.00;102053.43;1980115;72;26721;-68
2022/06/17 07:24:56;;;;;;;24.77;23.47;;;;;;;20.17;100.00;102048.57;1980133;72;24102;-67
2022/06/17 07:27:26;;;;;;;23.77;22.37;;;;;;;20.25;100.00;102041.31;1972075;72;24150;-68
2022/06/17 07:29:56;;;;;;;25.13;23.63;;;;;;;20.37;100.00;102045.82;1975914;72;24150;-71
2022/06/17 07:32:26;;;;;;;23.50;22.27;;;;;;;20.58;100.00;102035.65;1980772;72;24299;-67
2022/06/17 07:34:56;;;;;;;23.40;22.20;;;;;;;20.70;100.00;102030.83;1980019;72;24147;-67
2022/06/17 07:40:19;;;;;;;19.90;18.77;;;;;;;21.18;100.00;102011.10;1905641;73;24143;-67
2022/06/17 07:42:49;;;;;;;19.40;18.30;;;;;;;21.52;100.00;102000.42;1954911;73;24544;-67
2022/06/17 07:45:21;;;;;;;18.03;17.13;;;;;;;21.63;100.00;101995.52;1954872;73;24100;-67
2022/06/17 07:47:52;;;;;;;19.50;18.03;;;;;;;21.79;100.00;101982.53;1954933;73;24563;-67
2022/06/17 07:53:41;;;;;;;15.60;14.83;;;;;;;22.32;100.00;101977.65;2007792;71;30993;-67
2022/06/17 07:59:27;;;;;;;14.80;13.70;;;;;;;22.69;100.00;101967.80;2014813;71;30978;-67
2022/06/17 08:05:14;;;;;;;13.40;12.75;;;;;;;23.06;100.00;101961.83;2011529;71;30851;-66
2022/06/17 08:11:01;;;;;;;13.40;12.28;;;;;;;23.49;100.00;101960.75;2018412;71;31005;-67
2022/06/17 08:16:46;;;;;;;12.28;11.60;;;;;;;23.40;100.00;101960.78;1997203;71;31315;-67
2022/06/17 08:22:33;;;;;;;12.98;12.00;;;;;;;23.34;100.00;101953.64;2002237;71;30891;-67
2022/06/17 08:28:20;;;;;;;13.40;12.37;;;;;;;23.26;100.00;101968.72;2016572;71;30954;-66
2022/06/17 08:34:06;;;;;;;12.80;11.93;;;;;;;23.41;100.00;101975.77;1996965;71;30923;-65
2022/06/17 08:39:54;;;;;;;13.35;12.40;;;;;;;23.76;100.00;101977.77;2014648;71;31066;-66
2022/06/17 08:45:48;;;;;;;12.58;11.90;;;;;;;23.72;100.00;101964.88;2007591;71;30927;-66
2022/06/17 08:48:24;;;;;;;12.68;11.95;;;;;;;24.01;100.00;101962.50;1985704;72;24150;-65
2022/06/17 08:54:33;;;;;;;12.80;12.05;;;;;;;23.94;100.00;101957.99;2013012;71;30986;-66
2022/06/17 08:57:07;;;;;;;12.98;12.15;;;;;;;23.80;100.00;101948.94;1970545;72;24159;-66
2022/06/17 08:59:54;;;;;;;12.70;12.00;;;;;;;23.86;100.00;101961.75;1974970;72;24284;-66
2022/06/17 09:02:30;;;;;;;12.98;12.33;;;;;;;23.83;100.00;101951.91;1977109;72;24649;-66
2022/06/17 09:05:10;;;;;;;13.97;12.87;;;;;;;23.75;100.00;101964.17;1967933;72;24372;-66
2022/06/17 09:07:45;;;;;;;12.70;12.00;;;;;;;24.11;100.00;101945.03;1970251;72;24225;-66
2022/06/17 09:14:06;;;;;;;11.88;11.30;;;;;;;24.49;100.00;101938.52;2014664;71;30929;-66
2022/06/17 09:16:41;;;;;;;12.53;11.83;;;;;;;24.23;100.00;101953.61;1982005;72;24239;-66
2022/06/17 09:22:35;;;;;;;13.08;12.05;;;;;;;24.76;100.00;101952.63;2007972;71;30998;-66
2022/06/17 09:28:25;;;;;;;12.40;11.53;;;;;;;24.79;100.00;101931.19;2008994;71;31009;-66
2022/06/17 09:30:58;;;;;;;12.50;11.90;;;;;;;24.79;100.00;101929.17;1975725;72;24306;-66
2022/06/17 09:36:47;;;;;;;12.20;11.60;;;;;;;24.91;100.00;101916.40;2013313;71;30946;-65
2022/06/17 09:39:21;;;;;;;12.33;11.53;;;;;;;24.72;100.00;101921.02;1981099;72;24161;-65
2022/06/17 09:41:54;;;;;;;11.85;11.25;;;;;;;24.75;100.00;101918.88;1973166;72;24201;-66
2022/06/17 09:44:28;;;;;;;11.95;11.28;;;;;;;25.13;100.00;101918.50;1979113;72;24158;-66
2022/06/17 09:47:01;;;;;;;11.68;10.98;;;;;;;24.96;100.00;101919.59;1973891;72;24190;-65
2022/06/17 09:52:52;;;;;;;12.55;11.83;;;;;;;25.36;100.00;101904.00;1996417;71;28047;-66
2022/06/17 09:58:43;;;;;;;12.45;11.80;;;;;;;24.89;100.00;101898.89;1996818;71;30974;-66
2022/06/17 10:04:28;;;;;;;17.32;16.12;;;;;;;25.63;100.00;101891.81;2002569;71;30957;-66
2022/06/17 10:10:24;;;;;;;17.45;16.32;;;;;;;25.39;100.00;101885.61;2014811;71;30911;-63
2022/06/17 10:13:02;;;;;;;15.18;14.20;;;;;;;25.24;100.00;101875.59;1975900;72;24277;-64
2022/06/17 10:15:37;;;;;;;16.35;15.28;;;;;;;25.07;100.00;101884.41;1980103;72;24671;-66
2022/06/17 10:24:49;;;;;;;12.90;12.15;;;;;;;26.01;100.00;101859.13;2004123;71;31335;-64
2022/06/17 10:27:28;;;;;;;13.68;12.88;;;;;;;26.10;100.00;101866.28;1968416;72;24660;-65
2022/06/17 10:33:22;;;;;;;14.73;13.10;;;;;;;25.39;100.00;101870.55;2016683;70;31387;-66
2022/06/17 10:39:11;;;;;;;13.55;12.75;;;;;;;25.57;100.00;101858.30;2016604;71;30972;-66
2022/06/17 10:48:07;;;;;;;13.65;12.95;;;;;;;26.31;100.00;101853.84;2053084;69;30500;-66
2022/06/17 10:50:38;;;;;;;13.05;12.33;;;;;;;26.24;100.00;101848.19;1944020;73;24109;-65
2022/06/17 10:56:28;;;;;;;12.53;11.85;;;;;;;26.80;100.00;101834.27;2004621;71;30832;-66
2022/06/17 11:02:27;;;;;;;12.90;12.10;;;;;;;26.36;100.00;101846.45;2007904;71;30881;-66
2022/06/17 11:08:24;;;;;;;14.63;13.83;;;;;;;26.65;100.00;101848.20;2014876;71;30936;-66
2022/06/17 11:14:21;;;;;;;16.32;15.20;;;;;;;26.07;100.00;101843.41;2003806;71;30921;-66
2022/06/17 11:20:09;;;;;;;12.60;11.85;;;;;;;26.60;100.00;101838.51;2010005;71;31799;-66
2022/06/17 11:25:58;;;;;;;13.00;12.30;;;;;;;26.31;100.00;101842.45;2014720;71;31061;-64
2022/06/17 11:28:35;;;;;;;13.00;12.07;;;;;;;26.42;100.00;101846.38;1984959;72;24229;-64
2022/06/17 11:31:08;;;;;;;12.60;11.73;;;;;;;26.47;100.00;101848.95;1984536;72;24227;-64
2022/06/17 11:37:04;;;;;;;12.93;12.23;;;;;;;26.48;100.00;101832.09;1998413;71;31002;-66
2022/06/17 11:42:52;;;;;;;12.45;11.75;;;;;;;26.46;100.00;101823.91;2007368;71;30889;-66
2022/06/17 11:48:43;;;;;;;12.82;12.07;;;;;;;25.47;100.00;101746.40;1890399;70;31671;-64
2022/06/17 11:54:32;;;;;;;12.85;12.15;;;;;;;26.41;100.00;101811.36;2015003;71;31432;-66
2022/06/17 12:00:32;;;;;;;13.00;12.00;;;;;;;26.84;100.00;101813.79;2014940;71;30957;-66
2022/06/17 12:06:27;;;;;;;12.88;12.07;;;;;;;26.42;100.00;101798.77;1996952;71;32383;-65
2022/06/17 12:12:25;;;;;;;13.10;12.13;;;;;;;26.89;100.00;101800.70;2016473;71;31083;-64
2022/06/17 12:18:16;;;;;;;12.18;11.48;;;;;;;26.53;100.00;101804.71;2014754;71;30885;-66
2022/06/17 12:24:10;;;;;;;12.47;11.65;;;;;;;27.28;100.00;101785.85;2010042;71;30922;-65
2022/06/17 12:26:44;;;;;;;12.82;11.97;;;;;;;26.87;100.00;101786.01;1962316;72;25194;-65
2022/06/17 12:29:18;;;;;;;12.55;11.85;;;;;;;26.96;100.00;101798.83;1961594;72;25655;-65
2022/06/17 12:31:51;;;;;;;13.15;12.33;;;;;;;26.93;100.00;101792.45;1986340;72;24745;-65
2022/06/17 12:34:27;;;;;;;13.03;12.15;;;;;;;27.11;100.00;101796.52;1975531;72;25249;-66
2022/06/17 12:40:16;;;;;;;13.53;12.63;;;;;;;27.47;100.00;101782.98;2014773;71;31974;-66
2022/06/17 12:42:50;;;;;;;13.15;12.23;;;;;;;27.20;100.00;101790.59;1984145;72;25280;-66
2022/06/17 12:48:41;;;;;;;13.38;12.30;;;;;;;27.59;100.00;101785.70;1995015;71;30823;-66
2022/06/17 12:54:08;;;;;;;13.78;12.80;;;;;;;27.39;100.00;101784.02;1983750;72;25197;-66
2022/06/17 12:56:42;;;;;;;13.08;12.13;;;;;;;27.18;100.00;101790.95;1976995;72;24261;-66
2022/06/17 13:02:55;;;;;;;13.58;12.47;;;;;;;27.25;100.00;101775.20;1994624;71;30995;-66
2022/06/17 13:08:47;;;;;;;13.65;12.50;;;;;;;27.92;100.00;101761.63;1974077;72;31063;-65
2022/06/17 13:14:40;;;;;;;13.25;12.10;;;;;;;26.51;100.00;101766.63;2004067;71;31486;-66
2022/06/17 13:20:30;;;;;;;12.28;11.57;;;;;;;26.43;100.00;101763.98;2016534;71;31002;-67
2022/06/17 13:23:04;;;;;;;12.37;11.63;;;;;;;26.43;100.00;101763.98;1972367;72;25197;-67
2022/06/17 13:25:38;;;;;;;12.68;11.83;;;;;;;26.90;100.00;101754.72;1976800;72;24364;-67
2022/06/17 13:28:13;;;;;;;13.20;12.18;;;;;;;26.74;100.00;101756.78;1971408;72;24594;-67
2022/06/17 13:34:02;;;;;;;13.70;12.80;;;;;;;26.60;100.00;101747.30;2010925;71;31866;-67
2022/06/17 13:39:50;;;;;;;12.98;12.00;;;;;;;26.30;100.00;101756.75;2016552;71;31846;-65
2022/06/17 13:45:44;;;;;;;13.28;12.37;;;;;;;26.80;100.00;101741.61;2000282;71;30996;-64
2022/06/17 13:48:18;;;;;;;13.15;12.35;;;;;;;27.13;100.00;101747.04;1961627;72;25174;-64
2022/06/17 13:50:59;;;;;;;12.70;11.90;;;;;;;27.05;100.00;101742.39;1976428;72;24261;-64
2022/06/17 13:57:08;;;;;;;13.28;12.28;;;;;;;26.90;100.00;101739.63;2012920;71;31408;-67
2022/06/17 14:02:56;;;;;;;12.45;11.65;;;;;;;26.89;100.00;101733.69;2014644;71;30946;-65
2022/06/17 14:08:53;;;;;;;13.50;12.35;;;;;;;26.83;100.00;101740.88;1973794;72;31904;-67
2022/06/17 14:14:50;;;;;;;13.05;11.93;;;;;;;26.03;100.00;101737.13;1991456;71;30886;-65
2022/06/17 14:20:40;;;;;;;18.87;17.70;;;;;;;26.40;100.00;101727.07;2000312;71;31011;-66
2022/06/17 14:26:52;;;;;;;13.20;12.20;;;;;;;26.86;100.00;101720.19;2004384;71;32358;-65
2022/06/17 14:32:58;;;;;;;13.83;12.58;;;;;;;26.80;100.00;101738.16;2018361;71;31870;-67
2022/06/17 14:38:57;;;;;;;13.60;12.65;;;;;;;26.42;100.00;101732.41;2000674;71;31934;-67
2022/06/17 14:44:54;;;;;;;13.43;12.58;;;;;;;27.06;100.00;101724.68;1991438;71;30973;-67
2022/06/17 14:50:51;;;;;;;16.90;13.65;;;;;;;26.49;100.00;101729.12;2000604;71;31896;-68
2022/06/17 14:56:47;;;;;;;13.30;12.33;;;;;;;26.72;100.00;101727.20;2008006;71;31059;-67
2022/06/17 15:02:44;;;;;;;13.98;13.10;;;;;;;26.44;100.00;101724.33;2009576;71;31950;-64
2022/06/17 15:08:39;;;;;;;13.40;12.50;;;;;;;26.72;100.00;101720.67;2007529;71;32423;-67
2022/06/17 15:14:28;;;;;;;14.13;13.13;;;;;;;26.56;100.00;101727.88;2009389;71;31033;-67
2022/06/17 15:20:17;;;;;;;14.05;12.70;;;;;;;26.36;100.00;101713.97;2014954;71;30936;-64
2022/06/17 15:26:15;;;;;;;13.30;12.40;;;;;;;26.91;100.00;101722.75;2016350;71;31967;-67
2022/06/17 15:32:06;;;;;;;13.75;12.73;;;;;;;26.95;100.00;101719.38;2007985;71;31012;-67
2022/06/17 15:38:05;;;;;;;14.03;12.85;;;;;;;27.02;100.00;101716.66;2070006;69;30994;-65
2022/06/17 15:43:53;;;;;;;13.95;13.05;;;;;;;27.58;100.00;101705.55;1991576;71;31400;-66
2022/06/17 15:49:42;;;;;;;14.55;13.48;;;;;;;27.39;100.00;101724.09;2016710;71;31035;-67
2022/06/17 15:55:32;;;;;;;13.15;12.25;;;;;;;27.54;100.00;101719.75;2014540;71;30892;-66
2022/06/17 16:01:20;;;;;;;13.62;12.68;;;;;;;27.82;100.00;101722.88;2016672;71;31491;-67
2022/06/17 16:07:14;;;;;;;12.68;11.97;;;;;;;27.86;100.00;101716.62;1990893;71;30833;-67
2022/06/17 16:13:25;;;;;;;13.83;12.70;;;;;;;27.71;100.00;101711.28;1998235;71;30897;-67
2022/06/17 16:19:18;;;;;;;13.48;12.58;;;;;;;27.54;100.00;101710.36;2011095;71;31454;-65
2022/06/17 16:25:32;;;;;;;13.78;12.55;;;;;;;26.92;100.00;101718.67;2007537;71;30931;-67
2022/06/17 16:31:26;;;;;;;13.58;12.60;;;;;;;27.47;100.00;101713.89;2015580;71;31683;-67
2022/06/17 16:37:20;;;;;;;14.78;13.50;;;;;;;27.01;100.00;101718.67;2013378;71;30888;-67
2022/06/17 16:49:42;;;;;;;14.23;13.30;;;;;;;27.54;100.00;101701.80;2011316;71;30942;-67
2022/06/17 16:55:32;;;;;;;13.83;12.80;;;;;;;27.29;100.00;101704.17;2014965;71;32346;-67
2022/06/17 17:01:19;;;;;;;13.65;12.47;;;;;;;27.68;100.00;101692.67;2000179;71;31916;-71
2022/06/17 17:07:06;;;;;;;12.30;11.50;;;;;;;27.16;100.00;101685.57;2014653;71;31431;-69
2022/06/17 17:12:49;;;;;;;12.70;11.80;;;;;;;27.73;100.00;101687.44;2012949;71;31909;-71
2022/06/17 17:18:37;;;;;;;13.58;12.37;;;;;;;26.98;100.00;101692.34;2004294;71;30856;-69
2022/06/17 17:24:24;;;;;;;14.15;12.95;;;;;;;26.79;100.00;101689.45;2011236;71;30986;-71
2022/06/17 17:30:12;;;;;;;13.40;12.43;;;;;;;26.91;100.00;101697.09;2011507;71;30947;-69
2022/06/17 17:35:57;;;;;;;14.28;13.18;;;;;;;26.80;100.00;101691.12;2002470;71;31352;-69
2022/06/17 17:41:44;;;;;;;14.10;12.90;;;;;;;26.59;100.00;101688.64;2006312;71;31308;-71
2022/06/17 17:47:31;;;;;;;13.05;12.25;;;;;;;26.77;100.00;101681.90;2013149;71;31581;-71
2022/06/17 17:53:16;;;;;;;14.10;13.20;;;;;;;26.90;100.00;101680.58;2000810;71;32409;-71
2022/06/17 17:59:04;;;;;;;13.18;12.25;;;;;;;26.80;100.00;101686.84;2003973;71;32159;-71
2022/06/17 18:04:55;;;;;;;13.95;13.08;;;;;;;26.90;100.00;101681.17;1998370;71;31366;-71
2022/06/17 18:10:41;;;;;;;13.32;12.23;;;;;;;26.68;100.00;101679.27;2000109;71;31847;-69
2022/06/17 18:16:27;;;;;;;13.00;12.20;;;;;;;26.66;100.00;101678.80;2011696;71;31486;-70
2022/06/17 18:22:16;;;;;;;12.60;11.80;;;;;;;26.89;100.00;101683.20;2000579;71;30884;-70
2022/06/17 18:28:01;;;;;;;12.28;11.53;;;;;;;27.04;100.00;101685.11;2007722;71;31135;-70
2022/06/17 18:33:47;;;;;;;13.55;12.55;;;;;;;26.79;100.00;101689.45;2003641;71;31058;-69
2022/06/17 18:39:33;;;;;;;14.13;13.13;;;;;;;26.74;100.00;101689.78;2009357;70;31904;-71
2022/06/17 18:45:22;;;;;;;13.45;12.37;;;;;;;26.74;100.00;101694.06;2016567;71;31016;-71
2022/06/17 18:51:11;;;;;;;13.55;12.50;;;;;;;26.85;100.00;101693.70;2013020;70;30903;-69
2022/06/17 18:56:57;;;;;;;12.88;12.05;;;;;;;26.84;100.00;101697.72;2018435;71;31385;-71
2022/06/17 19:02:42;;;;;;;12.78;11.70;;;;;;;26.83;100.00;101697.48;2004115;70;31473;-71
2022/06/17 19:20:28;;;;;;;12.80;11.90;;;;;;;27.09;100.00;101693.38;2007799;71;31951;-70
2022/06/17 19:26:19;;;;;;;14.15;13.03;;;;;;;27.24;100.00;101703.64;2003936;71;31458;-70
2022/06/17 19:32:09;;;;;;;13.70;12.50;;;;;;;27.32;100.00;101705.42;2009401;71;31578;-70
2022/06/17 19:37:55;;;;;;;13.78;12.55;;;;;;;27.36;100.00;101706.31;1998446;71;30899;-67
2022/06/17 19:43:41;;;;;;;14.75;13.30;;;;;;;27.31;100.00;101702.34;2016855;71;31386;-68
2022/06/17 19:49:31;;;;;;;13.18;12.15;;;;;;;27.29;100.00;101711.90;2003741;71;31944;-66
2022/06/17 19:55:20;;;;;;;14.43;12.98;;;;;;;27.17;100.00;101710.02;1995114;71;30942;-67
2022/06/17 20:01:06;;;;;;;13.60;12.50;;;;;;;27.08;100.00;101718.02;2007747;70;32442;-67
2022/06/17 20:06:51;;;;;;;13.98;12.82;;;;;;;27.01;100.00;101722.95;1991091;70;31421;-67
2022/06/17 20:12:38;;;;;;;13.45;12.35;;;;;;;26.88;100.00;101730.02;2016784;71;31434;-68
2022/06/17 20:18:25;;;;;;;13.50;12.50;;;;;;;26.73;100.00;101728.87;1996953;71;31450;-71
2022/06/17 20:24:11;;;;;;;12.90;11.93;;;;;;;26.66;100.00;101742.11;2014860;71;30916;-71
2022/06/17 20:29:57;;;;;;;13.38;12.30;;;;;;;26.51;100.00;101744.43;2004363;71;31396;-67
2022/06/17 20:35:43;;;;;;;13.40;12.35;;;;;;;26.40;100.00;101750.49;1998540;71;30946;-71
2022/06/17 20:41:30;;;;;;;12.65;11.70;;;;;;;26.21;100.00;101757.78;2009165;71;31862;-69
2022/06/17 20:44:19;;;;;;;13.65;12.33;;;;;;;26.11;100.00;101762.57;1958722;72;24248;-70
2022/06/17 20:50:06;;;;;;;14.65;13.58;;;;;;;26.02;100.00;101772.48;2016545;71;31939;-71
2022/06/17 20:55:51;;;;;;;14.20;13.10;;;;;;;25.91;100.00;101772.83;2006236;71;33257;-71
2022/06/17 21:01:37;;;;;;;14.30;13.10;;;;;;;25.71;100.00;101779.86;2011818;71;33257;-71
2022/06/17 21:07:24;;;;;;;14.05;12.95;;;;;;;25.61;100.00;101779.55;2012914;71;31870;-73
2022/06/17 21:13:12;;;;;;;14.25;13.03;;;;;;;25.42;100.00;101782.22;2009324;71;30939;-73
2022/06/17 21:18:57;;;;;;;13.40;12.47;;;;;;;25.21;100.00;101782.45;2018346;71;31015;-72
2022/06/17 21:24:44;;;;;;;14.00;12.78;;;;;;;25.11;100.00;101782.39;2013190;71;30948;-72
2022/06/17 21:30:34;;;;;;;14.10;13.10;;;;;;;24.93;100.00;101787.55;1991358;71;31793;-72
2022/06/17 21:36:23;;;;;;;14.55;13.35;;;;;;;24.85;100.00;101783.39;2016595;70;31940;-70
2022/06/17 21:42:10;;;;;;;14.33;13.20;;;;;;;24.60;100.00;101791.74;2013665;71;30962;-70
2022/06/17 21:47:56;;;;;;;14.83;13.70;;;;;;;24.49;100.00;101790.80;2016563;71;31018;-71
2022/06/17 21:53:41;;;;;;;14.75;13.55;;;;;;;24.38;100.00;101790.23;2009848;71;30958;-71
2022/06/17 21:59:33;;;;;;;14.83;13.60;;;;;;;24.27;100.00;101794.70;2009224;71;31068;-70
2022/06/17 22:05:23;;;;;;;14.43;13.43;;;;;;;24.12;100.00;101799.66;2011251;71;31035;-71
2022/06/17 22:11:58;;;;;;;14.55;13.45;;;;;;;24.07;100.00;101809.82;2004427;71;30928;-71
2022/06/17 22:16:57;;;;;;;16.25;15.25;;;;;;;23.76;100.00;101808.94;2005484;71;31012;-70
2022/06/17 22:26:21;;;;;;;;;;;;;;;;;;;;;
2022/06/17 22:31:59;;;;;;;23.02;21.37;;;;;;;23.03;100.00;101834.16;2013112;71;30885;-69
2022/06/17 22:41:58;;;;;;;23.75;22.17;;;;;;;23.06;100.00;101838.53;1995305;71;30910;-71
2022/06/17 22:47:44;;;;;;;24.43;22.95;;;;;;;23.32;100.00;101841.76;2003826;70;31079;-71
2022/06/17 22:53:36;;;;;;;23.77;22.25;;;;;;;23.38;100.00;101838.34;1987693;71;31009;-71
2022/06/17 23:05:58;;;;;;;38.40;36.28;;;;;;;23.20;100.00;101831.75;1991510;71;30839;-70
2022/06/17 23:15:08;;;;;;;41.70;39.20;;;;;;;22.93;100.00;101831.75;2006265;71;31339;-71
2022/06/17 23:20:53;;;;;;;47.98;44.75;;;;;;;22.83;100.00;101833.56;2014791;71;30943;-71
2022/06/17 23:30:03;;;;;;;52.67;49.40;;;;;;;22.72;100.00;101824.62;2002573;71;30825;-71
2022/06/17 23:35:49;;;;;;;54.60;51.08;;;;;;;22.63;100.00;101828.91;2003839;71;30960;-71
2022/06/17 23:41:36;;;;;;;58.60;54.67;;;;;;;22.69;100.00;101811.16;2001451;70;30803;-71
2022/06/17 23:47:21;;;;;;;58.38;54.65;;;;;;;22.66;100.00;101809.83;2004271;71;31429;-71
2022/06/17 23:53:09;;;;;;;58.17;54.38;;;;;;;22.45;100.00;101801.05;2014984;71;31373;-71
2022/06/17 23:59:03;;;;;;;58.42;54.73;;;;;;;22.34;100.00;101803.44;2000880;71;31371;-71
